Array
(
    [0] => p
    [1] => TAF-100
)
- বাংলা English

ALL MARITIME PORTS HAVE BEEN ADVISED TO LOWER SIGNAL. MONSOON IS FAIRLY ACTIVE OVER BANGLADESH AND MODERATE OVER NORTH BAY.

TAF

TAF  VGHS 180500Z 1806/1912 16006KT 4000HZ SCT012 BKN100
TEMPO 1808/1812 18025KT 2000RA/TSRA SCT007 FEW025CB OVC090
BECMG 1816/1818 14006KT 3500HZ SCT015 BKN100
TEMPO 1821/1912 18025KT 2000RA/TSRA SCT007 FEW025CB OVC090=
 

TAF VGEG 180500Z 1806/1912 23012KT 5000 HZ SCT016 SCT110
  TEMPO 1901/1905 20015G25KT 1800 RA/TSRA SCT007 FEW025CB BKN090
  BECMG 1906/1908 24010KT 5000 HZ SCT016 SCT120=

TAF VGSY 180400Z 1806/1912 13005KT 4000HZ SCT015 BKN100
BECMG 1823/1901 04004KT 3000HZ SCT012 BKN100
 BECMG 1903/1905 09005KT 3500HZ SCT015 BKN100
TEMPO 1810/1906 27025G35KT 1500 RA/TSRA BKN006 FEW025CB OVC080=